Time;durP1;ratioP1;P1;durP2;ratioP2;P2;SDS_P1;SDS_P2;PMS_P1;PMS_P2;Temp;Humidity;BMP_temperature;BMP_pressure;BME280_temperature;BME280_humidity;BME280_pressure;Samples;Min_cycle;Max_cycle;Signal;HPM_P1;HPM_P2
2021/09/21 00:01:38;;;;;;;3.60;2.22;;;15.40;99.90;;;;;;4172266;28;20040;-73
2021/09/21 00:03:38;;;;;;;3.80;2.10;;;15.40;99.90;;;;;;4172966;28;20072;-72
2021/09/21 00:05:39;;;;;;;3.63;2.13;;;15.40;99.90;;;;;;4171592;28;20041;-73
2021/09/21 00:07:40;;;;;;;2.20;1.90;;;15.40;99.90;;;;;;4170251;28;20068;-72
2021/09/21 00:09:41;;;;;;;3.80;2.10;;;15.40;99.90;;;;;;4170619;28;20037;-72
2021/09/21 00:11:42;;;;;;;3.05;1.80;;;15.40;99.90;;;;;;4168000;28;20034;-72
2021/09/21 00:13:43;;;;;;;3.28;2.28;;;15.40;99.90;;;;;;4168367;28;20847;-72
2021/09/21 00:15:44;;;;;;;3.92;2.05;;;15.40;99.90;;;;;;4171037;28;20408;-72
2021/09/21 00:17:47;;;;;;;4.78;2.28;;;15.50;99.90;;;;;;4168187;28;20039;-72
2021/09/21 00:19:47;;;;;;;2.28;1.60;;;15.50;99.90;;;;;;4168099;28;20048;-73
2021/09/21 00:21:48;;;;;;;4.10;2.53;;;15.50;99.90;;;;;;4170387;28;20385;-72
2021/09/21 00:23:49;;;;;;;5.15;2.25;;;15.40;99.90;;;;;;4166846;28;20037;-72
2021/09/21 00:25:49;;;;;;;3.30;2.00;;;15.40;99.90;;;;;;4173745;28;20040;-72
2021/09/21 00:27:50;;;;;;;4.57;2.22;;;15.50;99.90;;;;;;4171613;28;20039;-72
2021/09/21 00:29:51;;;;;;;2.53;1.90;;;15.40;99.90;;;;;;4171793;28;20044;-73
2021/09/21 00:32:01;;;;;;;3.05;2.00;;;15.40;99.90;;;;;;4171070;28;20037;-72
2021/09/21 00:34:07;;;;;;;4.93;2.15;;;15.40;99.90;;;;;;4171295;28;20160;-72
2021/09/21 00:36:08;;;;;;;4.97;2.13;;;15.40;99.90;;;;;;4173690;28;20060;-72
2021/09/21 00:38:08;;;;;;;3.83;2.10;;;15.30;99.90;;;;;;4173777;28;20033;-72
2021/09/21 00:40:10;;;;;;;2.40;1.67;;;15.30;99.90;;;;;;4174202;28;20158;-72
2021/09/21 00:42:12;;;;;;;4.25;2.13;;;15.30;99.90;;;;;;4173695;28;20048;-72
2021/09/21 00:44:19;;;;;;;4.65;2.35;;;15.30;99.90;;;;;;4173199;28;20044;-72
2021/09/21 00:46:20;;;;;;;2.47;1.98;;;15.30;99.90;;;;;;4169176;28;20045;-72
2021/09/21 00:48:21;;;;;;;3.47;1.90;;;15.30;99.90;;;;;;4169093;28;20098;-72
2021/09/21 00:50:25;;;;;;;3.70;2.08;;;15.30;99.90;;;;;;4171770;28;20144;-72
2021/09/21 00:52:25;;;;;;;3.10;2.40;;;15.20;99.90;;;;;;4170454;28;20025;-73
2021/09/21 00:54:27;;;;;;;3.47;2.38;;;15.20;99.90;;;;;;4170941;28;20057;-72
2021/09/21 00:56:27;;;;;;;2.50;2.05;;;15.20;99.90;;;;;;4170891;28;20091;-73
2021/09/21 00:58:28;;;;;;;4.22;2.28;;;15.20;99.90;;;;;;4166085;28;20676;-72
2021/09/21 01:00:28;;;;;;;3.50;2.13;;;15.20;99.90;;;;;;4169352;28;20051;-73
2021/09/21 01:02:29;;;;;;;6.00;2.50;;;15.20;99.90;;;;;;4169245;28;20059;-72
2021/09/21 01:04:30;;;;;;;3.50;2.60;;;15.20;99.90;;;;;;4168503;28;20033;-73
2021/09/21 01:06:31;;;;;;;3.22;2.15;;;15.10;99.90;;;;;;4168186;28;20051;-73
2021/09/21 01:08:32;;;;;;;2.58;1.92;;;15.10;99.90;;;;;;4171418;28;20156;-72
2021/09/21 01:10:33;;;;;;;6.03;2.35;;;15.10;99.90;;;;;;4168681;28;20060;-73
2021/09/21 01:12:35;;;;;;;4.60;2.17;;;15.10;99.90;;;;;;4153357;28;20033;-73
2021/09/21 01:14:36;;;;;;;3.40;2.30;;;15.10;99.90;;;;;;4173822;28;20063;-73
2021/09/21 01:16:36;;;;;;;2.95;1.92;;;15.10;99.90;;;;;;4171068;28;20448;-72
2021/09/21 01:18:37;;;;;;;3.78;2.47;;;15.00;99.90;;;;;;4178269;28;20508;-72
2021/09/21 01:20:38;;;;;;;4.60;2.45;;;14.90;99.90;;;;;;4179902;28;20068;-72
2021/09/21 01:22:39;;;;;;;4.78;2.45;;;14.90;99.90;;;;;;4173669;28;20053;-73
2021/09/21 01:24:39;;;;;;;4.38;2.55;;;14.80;99.90;;;;;;4175631;28;20688;-72
2021/09/21 01:26:41;;;;;;;3.30;2.33;;;14.90;99.90;;;;;;4171657;28;20041;-72
2021/09/21 01:28:41;;;;;;;4.13;2.55;;;14.80;99.90;;;;;;4169705;28;20049;-73
2021/09/21 01:30:42;;;;;;;4.28;2.67;;;14.80;99.90;;;;;;4182571;28;20086;-73
2021/09/21 01:32:43;;;;;;;7.32;2.65;;;14.80;99.90;;;;;;4174786;28;20037;-72
2021/09/21 01:34:44;;;;;;;3.75;2.33;;;14.70;99.90;;;;;;4177064;28;20094;-73
2021/09/21 01:36:44;;;;;;;4.82;2.78;;;14.70;99.90;;;;;;4171433;28;20382;-73
2021/09/21 01:38:45;;;;;;;3.75;2.60;;;14.60;99.90;;;;;;4166444;28;20029;-73
2021/09/21 01:40:46;;;;;;;3.30;2.58;;;14.60;99.90;;;;;;4175047;28;20816;-73
2021/09/21 01:42:49;;;;;;;10.80;3.00;;;14.60;99.90;;;;;;4177512;28;20065;-72
2021/09/21 01:44:50;;;;;;;6.40;2.80;;;14.60;99.90;;;;;;4171813;28;20033;-72
2021/09/21 01:46:51;;;;;;;5.90;3.05;;;14.60;99.90;;;;;;4176151;28;20700;-72
2021/09/21 01:48:52;;;;;;;4.88;2.72;;;14.60;99.90;;;;;;4179448;28;20040;-72
2021/09/21 01:52:59;;;;;;;5.20;2.80;;;14.70;99.90;;;;;;4169405;28;20122;-72
2021/09/21 01:55:06;;;;;;;7.25;3.13;;;14.70;99.90;;;;;;4172137;28;20045;-72
2021/09/21 01:59:27;;;;;;;5.03;2.60;;;14.80;99.90;;;;;;4179278;28;20040;-72
2021/09/21 02:01:28;;;;;;;4.90;2.28;;;14.70;99.90;;;;;;4157039;28;20960;-73
2021/09/21 02:03:29;;;;;;;5.65;3.13;;;14.80;99.90;;;;;;4169726;28;20056;-72
2021/09/21 02:05:29;;;;;;;5.55;2.90;;;14.80;99.90;;;;;;4178313;28;20607;-72
2021/09/21 02:07:30;;;;;;;3.40;2.60;;;14.80;99.90;;;;;;4170842;28;20041;-72
2021/09/21 02:09:31;;;;;;;4.38;2.78;;;14.80;99.90;;;;;;4182316;28;20087;-72
2021/09/21 02:11:31;;;;;;;4.40;2.70;;;14.80;99.90;;;;;;4175798;28;20040;-72
2021/09/21 02:13:33;;;;;;;4.43;2.70;;;14.90;99.90;;;;;;4174949;28;20248;-72
2021/09/21 02:15:34;;;;;;;5.00;2.70;;;14.90;99.90;;;;;;4176916;28;20117;-72
2021/09/21 02:17:34;;;;;;;5.57;2.90;;;15.00;99.90;;;;;;4170708;28;20068;-72
2021/09/21 02:19:37;;;;;;;6.72;2.95;;;15.00;99.90;;;;;;4160081;28;20044;-72
2021/09/21 02:21:38;;;;;;;4.13;2.50;;;15.00;99.90;;;;;;4152947;28;20464;-73
2021/09/21 02:23:38;;;;;;;5.20;2.53;;;15.00;99.90;;;;;;4150119;28;20034;-73
2021/09/21 02:25:40;;;;;;;4.32;2.60;;;15.10;99.90;;;;;;4155629;28;20710;-72
2021/09/21 02:27:41;;;;;;;4.72;2.70;;;15.10;99.90;;;;;;4154905;28;20064;-72
2021/09/21 02:29:41;;;;;;;3.17;2.38;;;15.10;99.90;;;;;;4156158;28;20629;-73
2021/09/21 02:34:44;;;;;;;5.40;2.70;;;15.10;99.90;;;;;;4168998;28;20127;-73
2021/09/21 02:36:46;;;;;;;4.88;2.42;;;15.10;99.90;;;;;;4171427;28;20041;-72
2021/09/21 02:38:46;;;;;;;3.22;2.40;;;15.10;99.90;;;;;;4172192;28;20135;-73
2021/09/21 02:40:47;;;;;;;3.78;2.50;;;15.10;99.90;;;;;;4174190;28;20472;-73
2021/09/21 02:42:48;;;;;;;3.38;2.58;;;15.10;99.90;;;;;;4172573;28;20041;-73
2021/09/21 02:44:49;;;;;;;4.22;2.70;;;15.10;99.90;;;;;;4171548;28;20045;-72
2021/09/21 02:46:51;;;;;;;3.60;2.50;;;15.10;99.90;;;;;;4171383;28;20683;-72
2021/09/21 02:48:51;;;;;;;4.00;2.63;;;15.10;99.90;;;;;;4172461;28;20668;-72
2021/09/21 02:50:52;;;;;;;4.75;2.75;;;15.10;99.90;;;;;;4173736;28;20033;-72
2021/09/21 02:52:53;;;;;;;3.78;2.67;;;15.00;99.90;;;;;;4172247;28;20033;-73
2021/09/21 02:54:53;;;;;;;3.95;2.45;;;14.90;99.90;;;;;;4172805;28;20033;-73
2021/09/21 02:56:54;;;;;;;4.10;2.72;;;14.90;99.90;;;;;;4171966;28;20056;-72
2021/09/21 02:58:54;;;;;;;5.97;2.80;;;14.90;99.90;;;;;;4170554;28;20043;-72
2021/09/21 03:00:57;;;;;;;3.72;3.03;;;14.80;99.90;;;;;;4173165;28;20044;-72
2021/09/21 03:03:01;;;;;;;4.10;2.70;;;14.80;99.90;;;;;;4171758;28;20056;-73
2021/09/21 03:05:08;;;;;;;3.72;2.78;;;14.80;99.90;;;;;;4172907;28;20498;-72
2021/09/21 03:07:12;;;;;;;4.93;2.92;;;14.80;99.90;;;;;;4171900;28;20037;-72
2021/09/21 03:09:36;;;;;;;6.38;2.80;;;14.80;99.90;;;;;;4165390;28;20417;-73
2021/09/21 03:11:39;;;;;;;7.40;3.10;;;14.80;99.90;;;;;;4165356;28;20048;-73
2021/09/21 03:18:06;;;;;;;4.22;2.92;;;14.80;99.90;;;;;;4173101;28;20044;-72
2021/09/21 03:20:08;;;;;;;4.63;3.28;;;14.80;99.90;;;;;;4169040;28;20111;-73
2021/09/21 03:22:08;;;;;;;4.07;2.67;;;14.80;99.90;;;;;;4172060;28;20047;-72
2021/09/21 03:24:09;;;;;;;4.53;2.72;;;14.80;99.90;;;;;;4169372;28;20631;-73
2021/09/21 03:26:10;;;;;;;4.07;3.03;;;14.90;99.90;;;;;;4174138;28;20033;-72
2021/09/21 03:28:10;;;;;;;4.47;3.00;;;14.90;99.90;;;;;;4172084;28;20056;-72
2021/09/21 03:30:12;;;;;;;4.22;3.15;;;14.90;99.90;;;;;;4169459;28;20037;-73
2021/09/21 03:32:13;;;;;;;4.38;3.20;;;14.90;99.90;;;;;;4170217;28;20406;-73
2021/09/21 03:34:14;;;;;;;3.95;2.88;;;14.90;99.90;;;;;;4170354;28;20052;-72
2021/09/21 03:36:15;;;;;;;4.50;2.90;;;14.90;99.90;;;;;;4169272;28;20385;-73
2021/09/21 03:38:16;;;;;;;3.65;2.60;;;14.90;99.90;;;;;;4169011;28;20049;-73
2021/09/21 03:40:16;;;;;;;3.30;2.72;;;14.90;99.90;;;;;;4171956;28;20045;-73
2021/09/21 03:42:17;;;;;;;4.45;3.00;;;14.80;99.90;;;;;;4169808;28;20118;-73
2021/09/21 03:44:18;;;;;;;5.68;2.97;;;14.90;99.90;;;;;;4172299;28;20091;-72
2021/09/21 03:46:18;;;;;;;3.80;2.40;;;14.90;99.90;;;;;;4171625;28;20073;-72
2021/09/21 03:48:19;;;;;;;4.88;2.90;;;14.90;99.90;;;;;;4170121;28;20041;-72
2021/09/21 03:50:20;;;;;;;3.35;2.80;;;14.90;99.90;;;;;;4172846;28;20036;-72
2021/09/21 03:52:21;;;;;;;4.82;3.03;;;14.90;99.90;;;;;;4166281;28;20505;-72
2021/09/21 03:54:21;;;;;;;5.40;3.33;;;14.90;99.90;;;;;;4173231;28;20044;-73
2021/09/21 03:56:22;;;;;;;6.55;3.28;;;14.90;99.90;;;;;;4172970;28;20037;-72
2021/09/21 03:58:22;;;;;;;5.82;3.20;;;14.80;99.90;;;;;;4166898;28;20041;-72
2021/09/21 04:00:23;;;;;;;5.15;3.45;;;14.80;99.90;;;;;;4175283;28;20063;-73
2021/09/21 04:02:24;;;;;;;6.20;3.13;;;14.70;99.90;;;;;;4171593;28;20655;-72
2021/09/21 04:04:24;;;;;;;8.85;3.70;;;14.60;99.90;;;;;;4169701;28;20061;-73
2021/09/21 04:06:25;;;;;;;6.80;3.28;;;14.60;99.90;;;;;;4175677;28;20510;-72
2021/09/21 04:08:26;;;;;;;6.93;3.00;;;14.50;99.90;;;;;;4169648;28;20116;-73
2021/09/21 04:10:26;;;;;;;5.40;2.97;;;14.40;99.90;;;;;;4167481;28;20692;-73
2021/09/21 04:12:27;;;;;;;3.80;3.15;;;14.40;99.90;;;;;;4170483;28;20042;-72
2021/09/21 04:14:27;;;;;;;4.78;3.35;;;14.30;99.90;;;;;;4172764;28;20037;-73
2021/09/21 04:16:30;;;;;;;7.47;3.20;;;14.30;99.90;;;;;;4171112;28;20056;-72
2021/09/21 04:18:30;;;;;;;6.22;3.45;;;14.20;99.90;;;;;;4169809;28;20036;-73
2021/09/21 04:20:32;;;;;;;5.65;3.15;;;14.20;99.90;;;;;;4171240;28;20037;-73
2021/09/21 04:22:33;;;;;;;4.20;2.90;;;14.20;99.90;;;;;;4168085;28;20037;-72
2021/09/21 04:24:35;;;;;;;7.95;3.25;;;14.10;99.90;;;;;;4168244;28;20051;-72
2021/09/21 04:26:35;;;;;;;4.65;3.20;;;14.10;99.90;;;;;;4172295;28;20504;-73
2021/09/21 04:28:37;;;;;;;5.82;3.17;;;14.10;99.90;;;;;;4168438;28;20072;-72
2021/09/21 04:30:39;;;;;;;3.85;3.03;;;14.10;99.90;;;;;;4171952;28;20033;-72
2021/09/21 04:32:40;;;;;;;;;;;14.10;99.90;;;;;;4169107;28;20048;-73
2021/09/21 04:34:41;;;;;;;4.50;3.33;;;14.10;99.90;;;;;;4169023;28;20364;-72
2021/09/21 04:36:41;;;;;;;4.78;3.35;;;14.10;99.90;;;;;;4171531;28;20545;-72
2021/09/21 04:38:42;;;;;;;5.80;3.03;;;14.10;99.90;;;;;;4170639;28;20091;-72
2021/09/21 04:40:43;;;;;;;5.47;2.70;;;14.10;99.90;;;;;;4171275;28;20052;-72
2021/09/21 04:42:43;;;;;;;5.05;2.90;;;14.10;99.90;;;;;;4170361;28;20068;-73
2021/09/21 04:44:44;;;;;;;4.90;3.35;;;14.10;99.90;;;;;;4171346;28;20033;-72
2021/09/21 04:46:44;;;;;;;5.72;3.65;;;14.10;99.90;;;;;;4167752;28;20029;-73
2021/09/21 04:48:45;;;;;;;3.33;2.78;;;14.10;99.90;;;;;;4167853;28;20084;-72
2021/09/21 04:50:46;;;;;;;7.75;3.55;;;14.10;99.90;;;;;;4171185;28;20569;-72
2021/09/21 04:52:46;;;;;;;6.32;3.60;;;14.10;99.90;;;;;;4172981;28;20033;-72
2021/09/21 04:54:47;;;;;;;4.68;2.80;;;14.10;99.90;;;;;;4171812;28;20037;-73
2021/09/21 04:56:48;;;;;;;4.60;3.22;;;14.10;99.90;;;;;;4168585;28;20037;-72
2021/09/21 04:58:48;;;;;;;4.97;3.17;;;14.10;99.90;;;;;;4169858;28;20037;-72
2021/09/21 05:00:49;;;;;;;5.00;3.40;;;14.10;99.90;;;;;;4170320;28;20036;-73
2021/09/21 05:02:50;;;;;;;4.18;2.83;;;14.10;99.90;;;;;;4174536;28;20037;-72
2021/09/21 05:04:50;;;;;;;5.35;3.15;;;14.10;99.90;;;;;;4167402;28;20417;-73
2021/09/21 05:06:51;;;;;;;4.25;3.10;;;14.10;99.90;;;;;;4149865;28;20037;-73
2021/09/21 05:08:52;;;;;;;5.10;2.78;;;14.10;99.90;;;;;;4174667;28;20710;-73
2021/09/21 05:10:52;;;;;;;4.80;3.00;;;14.10;99.90;;;;;;4169141;28;20044;-73
2021/09/21 05:12:53;;;;;;;6.00;3.22;;;14.10;99.90;;;;;;4168745;28;20042;-72
2021/09/21 05:14:53;;;;;;;4.13;2.90;;;14.00;99.90;;;;;;4173875;28;20078;-73
2021/09/21 05:16:54;;;;;;;6.10;2.92;;;14.00;99.90;;;;;;4165158;28;20037;-73
2021/09/21 05:18:54;;;;;;;5.63;2.90;;;14.00;99.90;;;;;;4163438;28;20052;-73
2021/09/21 05:20:55;;;;;;;4.65;3.13;;;13.90;99.90;;;;;;4164291;28;20041;-73
2021/09/21 05:22:56;;;;;;;5.32;3.05;;;13.90;99.90;;;;;;4160707;28;20537;-73
2021/09/21 05:24:57;;;;;;;7.32;3.30;;;13.90;99.90;;;;;;4152315;28;20030;-73
2021/09/21 05:26:57;;;;;;;4.53;3.15;;;13.90;99.90;;;;;;4171447;28;20040;-74
2021/09/21 05:28:59;;;;;;;3.47;2.95;;;13.90;99.90;;;;;;4168317;28;20052;-73
2021/09/21 05:31:01;;;;;;;5.80;2.87;;;13.90;99.90;;;;;;4170361;28;20037;-74
2021/09/21 05:33:02;;;;;;;7.03;3.00;;;13.90;99.90;;;;;;4170929;28;20052;-74
2021/09/21 05:35:03;;;;;;;4.18;3.13;;;13.90;99.90;;;;;;4169162;28;20029;-74
2021/09/21 05:37:04;;;;;;;3.70;2.97;;;13.90;99.90;;;;;;4171331;28;20036;-74
2021/09/21 05:39:05;;;;;;;4.47;2.55;;;13.90;99.90;;;;;;4170228;28;20619;-74
2021/09/21 05:41:05;;;;;;;3.63;3.03;;;13.90;99.90;;;;;;4169119;28;20412;-73
2021/09/21 05:43:07;;;;;;;3.78;2.70;;;13.90;99.90;;;;;;4169286;28;20064;-74
2021/09/21 05:45:08;;;;;;;4.75;2.80;;;13.90;99.90;;;;;;4169153;28;20041;-74
2021/09/21 05:47:09;;;;;;;4.32;2.78;;;13.80;99.90;;;;;;4167530;28;20048;-74
2021/09/21 05:49:10;;;;;;;4.03;2.88;;;13.80;99.90;;;;;;4150447;28;20480;-74
2021/09/21 05:51:11;;;;;;;5.85;3.50;;;13.80;99.90;;;;;;4165250;28;20049;-74
2021/09/21 05:53:11;;;;;;;5.40;3.33;;;13.80;99.90;;;;;;4169121;28;20463;-74
2021/09/21 05:55:12;;;;;;;6.13;3.13;;;13.80;99.90;;;;;;4168919;28;20102;-74
2021/09/21 05:57:13;;;;;;;4.20;3.00;;;13.80;99.90;;;;;;4168397;28;20532;-74
2021/09/21 05:59:13;;;;;;;5.10;3.05;;;13.80;99.90;;;;;;4167418;28;20151;-74
2021/09/21 06:01:14;;;;;;;4.50;2.97;;;13.80;99.90;;;;;;4167187;28;20054;-74
2021/09/21 06:03:15;;;;;;;3.90;2.58;;;13.80;99.90;;;;;;4167670;28;20148;-74
2021/09/21 06:05:15;;;;;;;6.78;3.13;;;13.80;99.90;;;;;;4168198;28;20049;-74
2021/09/21 06:07:16;;;;;;;4.88;2.85;;;13.80;99.90;;;;;;4163152;28;20281;-74
2021/09/21 06:09:17;;;;;;;3.80;2.65;;;13.80;99.90;;;;;;4166656;28;20053;-74
2021/09/21 06:11:20;;;;;;;6.55;3.40;;;13.80;99.90;;;;;;4167713;28;20112;-74
2021/09/21 06:13:21;;;;;;;3.83;3.08;;;13.80;99.90;;;;;;4169596;28;20033;-74
2021/09/21 06:15:22;;;;;;;6.97;4.00;;;13.80;99.90;;;;;;4168993;28;20025;-74
2021/09/21 06:17:22;;;;;;;7.55;4.05;;;13.70;99.90;;;;;;4166604;28;20419;-74
2021/09/21 06:19:23;;;;;;;6.10;3.90;;;13.60;99.90;;;;;;4169241;28;20078;-74
2021/09/21 06:21:25;;;;;;;5.50;3.72;;;13.60;99.90;;;;;;4170466;28;20094;-74
2021/09/21 06:23:25;;;;;;;4.28;3.50;;;13.60;99.90;;;;;;4166633;28;20045;-73
2021/09/21 06:25:26;;;;;;;7.43;3.53;;;13.60;99.90;;;;;;4168556;28;20043;-74
2021/09/21 06:27:26;;;;;;;4.78;3.22;;;13.60;99.90;;;;;;4169315;28;20055;-74
2021/09/21 06:29:27;;;;;;;4.50;3.22;;;13.60;99.90;;;;;;4163127;28;20029;-74
2021/09/21 06:31:28;;;;;;;6.28;3.67;;;13.60;99.90;;;;;;4170180;28;20025;-74
2021/09/21 06:33:29;;;;;;;8.05;3.90;;;13.70;99.90;;;;;;4168735;28;20041;-74
2021/09/21 06:35:29;;;;;;;5.40;3.58;;;13.60;99.90;;;;;;4166722;28;20189;-74
2021/09/21 06:37:30;;;;;;;5.28;4.03;;;13.60;99.90;;;;;;4167043;28;20037;-73
2021/09/21 06:39:31;;;;;;;5.30;3.90;;;13.60;99.90;;;;;;4169281;28;20033;-74
2021/09/21 06:41:32;;;;;;;16.30;4.00;;;13.70;99.90;;;;;;4168816;28;20025;-74
2021/09/21 06:43:33;;;;;;;6.15;3.97;;;13.70;99.90;;;;;;4168878;28;20040;-73
2021/09/21 06:45:34;;;;;;;5.53;3.97;;;13.70;99.90;;;;;;4168354;28;20049;-74
2021/09/21 06:47:34;;;;;;;6.22;4.03;;;13.70;99.90;;;;;;4170250;28;20037;-73
2021/09/21 06:49:35;;;;;;;6.35;4.05;;;13.80;99.90;;;;;;4167772;28;20047;-73
2021/09/21 06:51:36;;;;;;;6.82;4.03;;;13.80;99.90;;;;;;4168065;28;20577;-73
2021/09/21 06:53:37;;;;;;;7.18;3.90;;;13.80;99.90;;;;;;4169466;28;20067;-74
2021/09/21 06:55:38;;;;;;;5.20;3.58;;;13.90;99.90;;;;;;4167941;28;20120;-74
2021/09/21 06:57:39;;;;;;;8.43;4.50;;;13.90;99.90;;;;;;4169728;28;20093;-74
2021/09/21 06:59:39;;;;;;;5.68;4.00;;;13.90;99.90;;;;;;4169645;28;20045;-74
2021/09/21 07:01:40;;;;;;;7.50;4.63;;;14.00;99.90;;;;;;4168525;28;20152;-74
2021/09/21 07:03:41;;;;;;;7.03;4.95;;;14.00;99.90;;;;;;4167228;28;20044;-74
2021/09/21 07:05:41;;;;;;;8.68;4.85;;;14.00;99.90;;;;;;4169464;28;20055;-74
2021/09/21 07:07:44;;;;;;;8.82;5.07;;;14.00;99.90;;;;;;4170870;28;20029;-74
2021/09/21 07:09:45;;;;;;;8.50;4.85;;;14.10;99.90;;;;;;4169840;28;20037;-74
2021/09/21 07:11:46;;;;;;;6.53;4.68;;;14.10;99.90;;;;;;4167884;28;20783;-73
2021/09/21 07:13:46;;;;;;;7.32;4.50;;;14.20;99.90;;;;;;4169057;28;20680;-74
2021/09/21 07:15:47;;;;;;;9.63;4.88;;;14.20;99.90;;;;;;4168579;28;20573;-74
2021/09/21 07:17:52;;;;;;;7.88;5.35;;;14.20;99.90;;;;;;4169817;28;20033;-73
2021/09/21 07:19:52;;;;;;;9.25;5.28;;;14.30;99.90;;;;;;4166398;28;20101;-73
2021/09/21 07:21:53;;;;;;;8.48;5.50;;;14.30;99.90;;;;;;4168355;28;20053;-74
2021/09/21 07:23:54;;;;;;;7.50;4.97;;;14.30;99.90;;;;;;4169460;28;20086;-73
2021/09/21 07:25:55;;;;;;;8.73;5.03;;;14.30;99.90;;;;;;4170402;28;20029;-74
2021/09/21 07:27:57;;;;;;;8.23;5.80;;;14.40;99.90;;;;;;4170124;28;20501;-74
2021/09/21 07:29:57;;;;;;;9.50;5.72;;;14.40;99.90;;;;;;4167805;28;20067;-74
2021/09/21 07:34:55;;;;;;;9.68;5.85;;;14.50;99.90;;;;;;4018702;28;20820;-75
2021/09/21 07:37:48;;;;;;;9.60;5.32;;;14.50;99.90;;;;;;4020707;28;20077;-74
2021/09/21 07:40:02;;;;;;;7.97;5.88;;;14.50;99.90;;;;;;4004053;28;20089;-74
2021/09/21 07:45:36;;;;;;;12.77;6.18;;;14.70;99.90;;;;;;4053939;28;20051;-74
2021/09/21 07:51:18;;;;;;;10.90;5.57;;;14.90;99.90;;;;;;4049843;28;20064;-75
2021/09/21 07:53:21;;;;;;;11.35;6.30;;;15.00;99.90;;;;;;4142191;28;20116;-72
2021/09/21 07:55:23;;;;;;;9.77;6.32;;;15.10;99.90;;;;;;4171121;28;20784;-73
2021/09/21 07:57:24;;;;;;;8.43;5.70;;;15.20;99.90;;;;;;4167631;28;20047;-73
2021/09/21 07:59:25;;;;;;;11.43;5.95;;;15.30;99.90;;;;;;4164153;28;20512;-74
2021/09/21 08:01:25;;;;;;;8.48;5.47;;;15.40;99.90;;;;;;4166776;28;20029;-74
2021/09/21 08:03:26;;;;;;;9.95;5.45;;;15.50;99.90;;;;;;4154482;28;20038;-74
2021/09/21 08:05:27;;;;;;;8.07;5.38;;;15.50;99.90;;;;;;4142376;28;20037;-74
2021/09/21 08:07:29;;;;;;;7.90;5.85;;;15.60;99.90;;;;;;4147036;28;20406;-74
2021/09/21 08:09:30;;;;;;;16.20;5.55;;;15.70;99.90;;;;;;4147116;28;20044;-74
2021/09/21 08:11:31;;;;;;;11.00;6.40;;;15.80;99.90;;;;;;4149929;28;20134;-74
2021/09/21 08:13:31;;;;;;;8.35;5.65;;;15.90;99.90;;;;;;4148486;28;20037;-74
2021/09/21 08:15:32;;;;;;;11.85;5.63;;;15.90;99.90;;;;;;4142931;28;20114;-74
2021/09/21 08:17:34;;;;;;;10.68;5.45;;;16.10;99.90;;;;;;4138920;28;20038;-74
2021/09/21 08:19:35;;;;;;;7.93;5.28;;;16.20;99.90;;;;;;4144361;28;20164;-74
2021/09/21 08:21:36;;;;;;;9.15;5.63;;;16.30;99.90;;;;;;4150175;28;20489;-74
2021/09/21 08:23:36;;;;;;;8.30;5.05;;;16.30;99.90;;;;;;4147492;28;20041;-76
2021/09/21 08:25:37;;;;;;;9.48;5.15;;;16.40;99.90;;;;;;4148312;28;20053;-74
2021/09/21 08:27:39;;;;;;;8.02;4.65;;;16.40;99.90;;;;;;4147573;28;20047;-76
2021/09/21 08:29:40;;;;;;;7.65;4.80;;;16.50;99.90;;;;;;4152126;28;20061;-76
2021/09/21 08:31:41;;;;;;;6.68;4.57;;;16.50;99.90;;;;;;4149791;28;20096;-76
2021/09/21 08:33:41;;;;;;;7.90;4.90;;;16.50;99.90;;;;;;4151147;28;21251;-75
2021/09/21 08:35:42;;;;;;;5.97;4.68;;;16.50;99.90;;;;;;4149204;28;20132;-75
2021/09/21 08:37:42;;;;;;;7.53;5.05;;;16.60;99.90;;;;;;4150087;28;20034;-75
2021/09/21 08:39:43;;;;;;;8.25;4.75;;;16.60;99.90;;;;;;4149333;28;20520;-75
2021/09/21 08:41:44;;;;;;;7.10;4.55;;;16.70;99.90;;;;;;4149585;28;20127;-75
2021/09/21 08:43:45;;;;;;;7.63;4.20;;;16.80;99.90;;;;;;4149190;28;20041;-75
2021/09/21 08:45:46;;;;;;;8.70;4.43;;;16.80;99.90;;;;;;4151257;28;20520;-75
2021/09/21 08:47:47;;;;;;;8.43;3.92;;;16.90;99.90;;;;;;4152076;28;20049;-75
2021/09/21 08:49:48;;;;;;;8.65;4.70;;;16.80;99.90;;;;;;4150954;28;20489;-74
2021/09/21 08:51:48;;;;;;;7.45;4.45;;;16.90;99.90;;;;;;4151882;28;20650;-74
2021/09/21 08:53:49;;;;;;;7.80;4.82;;;16.90;99.90;;;;;;4150086;28;20049;-74
2021/09/21 08:55:51;;;;;;;6.95;4.30;;;17.00;99.90;;;;;;4150856;28;20037;-74
2021/09/21 08:57:52;;;;;;;7.10;4.70;;;17.20;99.90;;;;;;4162399;28;20045;-74
2021/09/21 08:59:55;;;;;;;5.22;3.67;;;17.30;99.90;;;;;;4163981;28;20040;-74
2021/09/21 09:01:55;;;;;;;8.73;4.32;;;17.30;99.90;;;;;;4166675;28;20036;-74
2021/09/21 09:03:57;;;;;;;6.88;3.88;;;17.50;99.90;;;;;;4165315;28;20041;-74
2021/09/21 09:06:05;;;;;;;4.65;2.97;;;17.60;99.90;;;;;;4167327;28;20037;-74
2021/09/21 09:08:06;;;;;;;6.25;3.42;;;17.60;99.90;;;;;;4163452;28;20037;-74
2021/09/21 09:10:07;;;;;;;5.13;3.25;;;17.70;99.90;;;;;;4161124;28;23782;-74
2021/09/21 09:12:08;;;;;;;6.20;3.30;;;17.80;99.90;;;;;;4165167;28;20041;-74
2021/09/21 09:14:37;;;;;;;5.07;2.88;;;17.90;99.90;;;;;;4165174;28;20131;-74
2021/09/21 09:16:37;;;;;;;8.15;3.45;;;18.00;99.90;;;;;;4160720;28;20041;-74
2021/09/21 09:18:39;;;;;;;4.40;3.20;;;18.20;99.90;;;;;;4165592;28;20021;-74
2021/09/21 09:20:43;;;;;;;5.38;3.03;;;18.20;99.90;;;;;;4163390;28;20678;-74
2021/09/21 09:22:43;;;;;;;5.00;3.10;;;18.30;99.90;;;;;;4164762;28;20851;-74
2021/09/21 09:24:53;;;;;;;3.60;2.47;;;18.20;99.90;;;;;;4165085;28;20087;-74
2021/09/21 09:26:54;;;;;;;5.18;2.75;;;18.20;99.90;;;;;;4164903;28;20033;-74
2021/09/21 09:28:56;;;;;;;4.70;2.85;;;18.20;99.90;;;;;;4165899;28;20141;-74
2021/09/21 09:30:58;;;;;;;3.72;2.55;;;18.20;99.90;;;;;;4164504;28;20036;-74
2021/09/21 09:33:00;;;;;;;4.30;2.83;;;18.30;99.90;;;;;;4164862;28;20069;-74
2021/09/21 09:35:01;;;;;;;13.35;3.03;;;18.30;99.90;;;;;;4161729;28;20160;-74
2021/09/21 09:37:04;;;;;;;6.53;3.05;;;18.40;99.90;;;;;;4163210;28;20068;-74
2021/09/21 09:39:06;;;;;;;;;;;18.50;99.90;;;;;;4165448;28;20592;-74
2021/09/21 09:41:07;;;;;;;3.67;2.58;;;18.60;99.90;;;;;;4165400;28;19927;-74
2021/09/21 09:43:08;;;;;;;4.00;2.47;;;18.60;99.90;;;;;;4165130;28;20033;-74
2021/09/21 09:45:10;;;;;;;5.10;2.72;;;18.70;99.90;;;;;;4165329;28;21124;-74
2021/09/21 09:47:10;;;;;;;6.37;3.30;;;18.70;99.90;;;;;;4164584;28;20092;-74
2021/09/21 09:49:11;;;;;;;5.43;3.33;;;18.60;99.90;;;;;;4164316;28;20276;-74
2021/09/21 09:51:18;;;;;;;3.95;2.78;;;18.70;99.90;;;;;;4162280;28;20080;-74
2021/09/21 09:53:23;;;;;;;3.60;2.13;;;18.80;99.90;;;;;;4163946;28;20480;-74
2021/09/21 09:55:24;;;;;;;4.30;2.70;;;18.80;99.90;;;;;;4162296;28;20037;-74
2021/09/21 09:57:24;;;;;;;3.28;2.17;;;18.90;99.90;;;;;;4161378;28;20666;-74
2021/09/21 09:59:28;;;;;;;4.30;2.38;;;18.90;99.90;;;;;;4161462;28;20052;-74
2021/09/21 10:01:29;;;;;;;5.32;2.33;;;19.00;99.90;;;;;;4161183;28;20583;-74
2021/09/21 10:03:30;;;;;;;4.90;2.47;;;19.00;99.90;;;;;;4161017;28;20146;-74
2021/09/21 10:05:34;;;;;;;3.58;1.77;;;19.00;99.90;;;;;;4152495;28;20041;-74
2021/09/21 10:07:36;;;;;;;3.22;1.80;;;19.10;99.90;;;;;;4163019;28;20634;-74
2021/09/21 10:09:37;;;;;;;2.67;2.25;;;19.20;99.90;;;;;;4165175;28;20040;-74
2021/09/21 10:11:39;;;;;;;3.50;1.73;;;19.20;99.90;;;;;;4160619;28;20036;-74
2021/09/21 10:13:40;;;;;;;3.07;1.93;;;19.30;99.90;;;;;;4162791;28;20033;-74
2021/09/21 10:15:42;;;;;;;3.67;1.90;;;19.40;99.90;;;;;;4163026;28;20045;-74
2021/09/21 10:17:56;;;;;;;4.88;2.30;;;19.40;99.90;;;;;;4162671;28;20057;-74
2021/09/21 10:19:56;;;;;;;;;;;19.50;99.90;;;;;;4162086;28;20017;-73
2021/09/21 10:21:58;;;;;;;3.15;2.05;;;19.50;99.90;;;;;;4161287;28;19919;-74
2021/09/21 10:24:03;;;;;;;3.65;2.20;;;19.60;99.90;;;;;;4164098;28;20057;-74
2021/09/21 10:26:19;;;;;;;4.03;2.10;;;19.60;99.90;;;;;;4161359;28;20037;-73
2021/09/21 10:28:21;;;;;;;3.70;2.30;;;19.70;99.90;;;;;;4167246;28;20114;-74
2021/09/21 10:30:24;;;;;;;4.20;2.60;;;19.70;99.90;;;;;;4167305;28;20095;-74
2021/09/21 10:32:25;;;;;;;4.35;2.33;;;19.70;98.60;;;;;;4164079;28;20032;-74
2021/09/21 10:34:37;;;;;;;3.03;2.10;;;19.60;98.60;;;;;;4167525;28;20050;-74
2021/09/21 10:36:55;;;;;;;2.63;2.00;;;19.70;99.90;;;;;;4165697;28;20037;-74
2021/09/21 10:38:59;;;;;;;5.53;2.17;;;19.70;99.90;;;;;;4165127;28;20116;-74
2021/09/21 10:41:03;;;;;;;3.55;2.42;;;19.80;99.90;;;;;;4165229;28;20532;-74
2021/09/21 10:43:19;;;;;;;8.55;2.45;;;19.80;99.90;;;;;;4163060;28;20044;-74
2021/09/21 10:45:25;;;;;;;3.72;2.42;;;19.90;99.90;;;;;;4166445;28;21109;-74
2021/09/21 10:47:28;;;;;;;4.68;2.22;;;19.90;99.90;;;;;;4166598;28;20074;-74
2021/09/21 10:49:38;;;;;;;4.20;2.47;;;19.90;99.90;;;;;;4165824;28;20069;-74
2021/09/21 10:51:47;;;;;;;6.32;2.60;;;19.90;97.70;;;;;;4164062;28;20114;-74
2021/09/21 10:54:01;;;;;;;3.90;2.42;;;19.90;97.20;;;;;;4166832;28;20045;-74
2021/09/21 10:56:11;;;;;;;3.05;1.98;;;19.90;99.90;;;;;;4151627;28;20602;-74
2021/09/21 10:58:19;;;;;;;5.40;2.42;;;19.90;99.90;;;;;;4148956;28;20049;-74